Time;durP1;ratioP1;P1;durP2;ratioP2;P2;SDS_P1;SDS_P2;PMS_P1;PMS_P2;Temp;Humidity;BMP_temperature;BMP_pressure;BME280_temperature;BME280_humidity;BME280_pressure;Samples;Min_cycle;Max_cycle;Signal;HPM_P1;HPM_P2
2023/07/13 00:00:48;;;;;;;10.50;4.13;;;29.30;96.70;;;;;;4920336;29;20047;-79
2023/07/13 00:03:18;;;;;;;14.80;4.60;;;29.20;96.70;;;;;;4920665;29;20055;-78
2023/07/13 00:05:48;;;;;;;10.70;3.63;;;29.00;96.70;;;;;;4908980;29;20043;-78
2023/07/13 00:08:16;;;;;;;12.57;3.90;;;29.00;96.70;;;;;;4926881;29;20087;-79
2023/07/13 00:10:45;;;;;;;12.25;3.97;;;28.90;96.70;;;;;;4898577;29;20039;-79
2023/07/13 00:13:13;;;;;;;10.02;4.10;;;28.80;96.70;;;;;;4926712;29;20108;-78
2023/07/13 00:15:41;;;;;;;15.00;4.25;;;28.90;96.70;;;;;;4914805;29;20188;-78
2023/07/13 00:18:09;;;;;;;13.07;4.70;;;28.90;96.70;;;;;;4919660;29;20472;-78
2023/07/13 00:20:41;;;;;;;12.85;4.35;;;28.80;96.70;;;;;;4926685;29;20159;-78
2023/07/13 00:23:09;;;;;;;13.60;4.90;;;28.80;96.70;;;;;;4927024;29;20040;-78
2023/07/13 00:25:38;;;;;;;14.95;4.50;;;28.60;96.70;;;;;;4929119;29;20374;-78
2023/07/13 00:28:07;;;;;;;10.35;3.97;;;28.40;96.70;;;;;;4917295;29;20082;-78
2023/07/13 00:30:35;;;;;;;10.07;3.97;;;28.40;96.70;;;;;;4920627;29;20474;-78
2023/07/13 00:33:03;;;;;;;11.13;3.90;;;28.60;96.70;;;;;;4909145;29;20142;-78
2023/07/13 00:35:47;;;;;;;12.60;4.22;;;28.60;96.70;;;;;;4915151;29;20457;-78
2023/07/13 00:38:16;;;;;;;10.60;4.10;;;28.70;96.70;;;;;;4911847;29;20055;-78
2023/07/13 00:40:44;;;;;;;13.75;4.18;;;28.80;96.70;;;;;;4924059;29;20098;-79
2023/07/13 00:43:15;;;;;;;12.25;3.50;;;28.90;96.70;;;;;;4926751;29;20040;-78
2023/07/13 00:46:13;;;;;;;11.25;3.80;;;28.80;96.70;;;;;;4927563;29;20058;-78
2023/07/13 00:48:45;;;;;;;12.32;4.88;;;28.90;96.70;;;;;;4919437;29;20054;-78
2023/07/13 00:51:20;;;;;;;11.85;3.83;;;28.90;96.70;;;;;;4929898;29;20511;-78
2023/07/13 00:53:49;;;;;;;9.02;3.95;;;29.00;96.70;;;;;;4921428;29;20051;-78
2023/07/13 00:56:18;;;;;;;12.57;4.25;;;28.80;96.70;;;;;;4914690;29;20051;-78
2023/07/13 00:58:46;;;;;;;15.50;5.07;;;28.70;96.70;;;;;;4922075;29;20059;-78
2023/07/13 01:01:14;;;;;;;15.15;4.97;;;28.80;96.70;;;;;;4923652;29;20047;-78
2023/07/13 01:03:43;;;;;;;12.20;4.32;;;28.80;96.70;;;;;;4928963;29;20103;-78
2023/07/13 01:06:11;;;;;;;14.98;4.05;;;28.70;96.70;;;;;;4913476;29;20055;-78
2023/07/13 01:08:41;;;;;;;13.13;4.85;;;28.70;96.70;;;;;;4928724;29;20450;-79
2023/07/13 01:11:10;;;;;;;12.68;4.13;;;28.60;96.70;;;;;;4913951;29;20044;-78
2023/07/13 01:13:38;;;;;;;7.15;3.83;;;28.60;96.70;;;;;;4914479;29;20048;-77
2023/07/13 01:16:15;;;;;;;11.18;4.15;;;28.70;96.70;;;;;;4910574;29;20103;-77
2023/07/13 01:18:43;;;;;;;10.38;4.15;;;28.80;96.70;;;;;;4919730;29;20052;-78
2023/07/13 01:21:13;;;;;;;16.17;4.30;;;28.70;96.70;;;;;;4929121;29;20044;-77
2023/07/13 01:23:41;;;;;;;11.43;4.03;;;28.50;96.70;;;;;;4919379;29;20060;-78
2023/07/13 01:26:09;;;;;;;12.75;3.70;;;28.60;96.70;;;;;;4929706;29;20040;-78
2023/07/13 01:28:38;;;;;;;10.45;4.13;;;28.70;96.70;;;;;;4928904;29;20043;-79
2023/07/13 01:31:09;;;;;;;14.55;4.68;;;28.70;96.70;;;;;;4918691;29;20133;-79
2023/07/13 01:33:39;;;;;;;12.13;4.18;;;28.60;96.70;;;;;;4922363;29;20051;-78
2023/07/13 01:36:08;;;;;;;9.05;3.88;;;28.60;96.70;;;;;;4911517;29;20097;-78
2023/07/13 01:38:39;;;;;;;7.70;3.83;;;28.60;96.70;;;;;;4911621;29;20071;-77
2023/07/13 01:41:11;;;;;;;15.30;4.35;;;28.70;96.70;;;;;;4913932;29;20055;-77
2023/07/13 01:43:39;;;;;;;10.13;3.45;;;28.60;96.70;;;;;;4914893;29;20054;-77
2023/07/13 01:46:07;;;;;;;9.90;3.40;;;28.50;96.70;;;;;;4927963;29;20047;-79
2023/07/13 01:48:51;;;;;;;16.73;4.78;;;28.60;96.70;;;;;;4920074;29;21395;-78
2023/07/13 01:51:19;;;;;;;8.18;4.03;;;28.70;96.70;;;;;;4923335;29;20528;-78
2023/07/13 01:53:49;;;;;;;15.32;3.83;;;28.80;96.70;;;;;;4911605;29;20675;-78
2023/07/13 01:56:18;;;;;;;9.65;4.15;;;28.60;96.70;;;;;;4911711;29;20692;-78
2023/07/13 01:58:46;;;;;;;12.55;4.13;;;28.60;96.70;;;;;;4897851;29;20067;-78
2023/07/13 02:01:14;;;;;;;9.48;3.35;;;28.60;96.70;;;;;;4910712;29;20044;-78
2023/07/13 02:03:43;;;;;;;9.02;3.47;;;28.60;96.70;;;;;;4911259;29;20103;-77
2023/07/13 02:06:11;;;;;;;10.18;3.75;;;28.70;96.70;;;;;;4928543;29;20047;-78
2023/07/13 02:08:42;;;;;;;11.98;4.40;;;28.60;96.70;;;;;;4900879;29;20051;-78
2023/07/13 02:11:12;;;;;;;10.75;4.18;;;28.70;96.70;;;;;;4919023;29;20130;-78
2023/07/13 02:13:41;;;;;;;8.27;3.63;;;28.60;96.70;;;;;;4911978;29;20102;-78
2023/07/13 02:16:09;;;;;;;8.00;3.42;;;28.50;96.70;;;;;;4910859;29;20055;-78
2023/07/13 02:18:38;;;;;;;10.50;3.50;;;28.40;96.70;;;;;;4919542;29;20043;-77
2023/07/13 02:21:07;;;;;;;10.93;3.80;;;28.20;96.70;;;;;;4927912;29;20036;-78
2023/07/13 02:23:35;;;;;;;9.20;4.18;;;28.30;96.70;;;;;;4924719;29;20359;-78
2023/07/13 02:26:04;;;;;;;10.13;3.30;;;28.20;96.70;;;;;;4908721;29;20051;-79
2023/07/13 02:28:34;;;;;;;6.43;3.03;;;28.30;96.70;;;;;;4894998;29;20043;-78
2023/07/13 02:31:08;;;;;;;10.40;3.90;;;28.40;96.70;;;;;;4910902;29;20048;-78
2023/07/13 02:33:36;;;;;;;8.30;3.30;;;28.40;96.70;;;;;;4928458;29;20055;-82
2023/07/13 02:36:06;;;;;;;10.38;3.70;;;28.40;96.70;;;;;;4928071;29;20135;-78
2023/07/13 02:38:35;;;;;;;11.07;3.75;;;28.40;96.70;;;;;;4920047;29;20720;-78
2023/07/13 02:41:04;;;;;;;10.38;3.67;;;28.50;96.70;;;;;;4928252;29;20068;-78
2023/07/13 02:43:34;;;;;;;7.22;3.88;;;28.50;96.70;;;;;;4927771;29;20173;-78
2023/07/13 02:46:09;;;;;;;7.85;3.53;;;28.40;96.70;;;;;;4910549;29;20541;-79
2023/07/13 02:48:39;;;;;;;8.02;3.35;;;28.30;96.70;;;;;;4909393;29;20058;-78
2023/07/13 02:51:08;;;;;;;8.52;3.60;;;28.30;96.70;;;;;;4927768;29;20058;-78
2023/07/13 02:53:36;;;;;;;10.55;3.63;;;28.20;96.70;;;;;;4927953;29;20073;-78
2023/07/13 02:56:05;;;;;;;11.20;3.45;;;28.20;96.70;;;;;;4919061;29;20046;-78
2023/07/13 02:58:36;;;;;;;9.00;3.40;;;28.20;96.70;;;;;;4910167;29;20142;-78
2023/07/13 03:01:07;;;;;;;7.68;3.30;;;28.30;96.70;;;;;;4909100;29;20052;-78
2023/07/13 03:03:36;;;;;;;6.28;3.20;;;28.30;96.70;;;;;;4909983;29;20107;-78
2023/07/13 03:06:07;;;;;;;8.23;3.80;;;28.30;96.70;;;;;;4910508;29;20059;-78
2023/07/13 03:08:46;;;;;;;9.13;3.53;;;28.20;96.70;;;;;;4906553;29;20051;-78
2023/07/13 03:11:19;;;;;;;12.63;3.60;;;28.20;96.70;;;;;;4909945;29;20071;-78
2023/07/13 03:13:58;;;;;;;9.27;3.30;;;28.20;96.70;;;;;;4917719;29;20577;-79
2023/07/13 03:16:29;;;;;;;6.25;3.33;;;28.30;96.70;;;;;;4900052;29;20494;-78
2023/07/13 03:18:57;;;;;;;6.82;3.53;;;28.30;96.70;;;;;;4912151;29;20090;-77
2023/07/13 03:21:25;;;;;;;10.07;3.65;;;28.30;96.70;;;;;;4908832;29;20415;-77
2023/07/13 03:23:54;;;;;;;10.02;3.25;;;28.30;96.70;;;;;;4918292;29;20501;-77
2023/07/13 03:26:22;;;;;;;5.85;3.28;;;28.30;96.70;;;;;;4910370;29;20509;-78
2023/07/13 03:28:50;;;;;;;11.40;3.20;;;28.30;96.70;;;;;;4907279;29;20138;-78
2023/07/13 03:31:25;;;;;;;7.65;3.05;;;28.20;96.70;;;;;;4909335;29;20040;-78
2023/07/13 03:33:54;;;;;;;9.85;3.75;;;28.10;96.70;;;;;;4914112;29;20138;-77
2023/07/13 03:36:24;;;;;;;8.60;3.30;;;28.10;96.70;;;;;;4904096;29;20402;-77
2023/07/13 03:38:59;;;;;;;9.00;4.28;;;28.20;96.70;;;;;;4926849;29;20071;-78
2023/07/13 03:41:35;;;;;;;13.82;6.65;;;28.30;96.70;;;;;;4924997;29;20043;-78
2023/07/13 03:44:03;;;;;;;14.57;8.63;;;28.40;96.70;;;;;;4926242;29;20110;-78
2023/07/13 03:46:34;;;;;;;13.98;8.68;;;28.40;96.70;;;;;;4926147;29;20126;-77
2023/07/13 03:49:06;;;;;;;10.45;6.22;;;28.30;96.70;;;;;;4893873;29;20054;-78
2023/07/13 03:51:34;;;;;;;8.93;5.07;;;28.30;96.70;;;;;;4926516;29;20127;-78
2023/07/13 03:54:03;;;;;;;9.75;4.75;;;28.30;96.70;;;;;;4916020;29;20075;-83
2023/07/13 03:56:32;;;;;;;8.82;3.83;;;28.30;96.70;;;;;;4920623;29;20048;-83
2023/07/13 03:59:03;;;;;;;7.03;3.45;;;28.30;96.70;;;;;;4911726;29;20059;-84
2023/07/13 04:01:32;;;;;;;12.32;3.53;;;28.20;96.70;;;;;;4898570;29;20058;-82
2023/07/13 04:04:01;;;;;;;10.02;3.53;;;28.30;96.70;;;;;;4914033;29;20047;-83
2023/07/13 04:06:32;;;;;;;8.73;3.40;;;28.20;96.70;;;;;;4917701;29;20060;-83
2023/07/13 04:09:01;;;;;;;6.30;2.88;;;28.30;96.70;;;;;;4917029;29;20040;-77
2023/07/13 04:11:31;;;;;;;6.32;3.08;;;28.30;96.70;;;;;;4915565;29;20051;-79
2023/07/13 04:14:00;;;;;;;8.02;3.90;;;28.30;96.70;;;;;;4911274;29;20059;-78
2023/07/13 04:16:29;;;;;;;8.93;3.17;;;28.30;96.70;;;;;;4915028;29;20462;-77
2023/07/13 04:19:00;;;;;;;7.15;3.00;;;28.30;96.70;;;;;;4917392;29;20939;-78
2023/07/13 04:21:31;;;;;;;4.88;2.75;;;28.30;96.70;;;;;;4917829;29;20051;-78
2023/07/13 04:24:00;;;;;;;6.97;2.85;;;28.30;96.70;;;;;;4916762;29;20051;-78
2023/07/13 04:26:28;;;;;;;11.65;3.22;;;28.10;96.70;;;;;;4909362;29;20095;-79
2023/07/13 04:28:57;;;;;;;8.18;3.55;;;28.10;96.70;;;;;;4909023;29;20163;-78
2023/07/13 04:31:25;;;;;;;8.85;3.25;;;28.20;96.70;;;;;;4894594;29;20039;-78
2023/07/13 04:33:54;;;;;;;8.73;2.85;;;28.20;96.70;;;;;;4929218;29;20051;-78
2023/07/13 04:36:22;;;;;;;7.78;2.88;;;28.30;96.70;;;;;;4903862;29;20498;-79
2023/07/13 04:38:52;;;;;;;6.07;2.67;;;28.30;96.70;;;;;;4924714;29;20059;-78
2023/07/13 04:41:21;;;;;;;8.30;3.30;;;28.30;96.70;;;;;;4893365;29;20075;-77
2023/07/13 04:43:50;;;;;;;9.63;3.40;;;28.20;96.70;;;;;;4919866;29;20415;-78
2023/07/13 04:46:19;;;;;;;5.00;3.13;;;28.20;96.70;;;;;;4900576;29;20047;-80
2023/07/13 04:48:49;;;;;;;7.80;3.08;;;28.30;96.70;;;;;;4921527;29;20048;-80
2023/07/13 04:51:17;;;;;;;6.85;2.92;;;28.30;96.70;;;;;;4925609;29;20052;-78
2023/07/13 04:53:45;;;;;;;7.68;3.10;;;28.30;96.70;;;;;;4906604;29;20063;-79
2023/07/13 04:56:15;;;;;;;8.68;3.72;;;28.40;96.70;;;;;;4925200;29;20102;-78
2023/07/13 04:58:43;;;;;;;9.00;3.35;;;28.40;96.70;;;;;;4926066;29;20060;-78
2023/07/13 05:01:13;;;;;;;12.32;4.03;;;28.40;96.70;;;;;;4893849;29;20055;-80
2023/07/13 05:03:42;;;;;;;7.75;3.30;;;28.20;96.70;;;;;;4916227;29;20048;-79
2023/07/13 05:06:10;;;;;;;7.10;3.83;;;28.10;96.70;;;;;;4918589;29;20055;-79
2023/07/13 05:08:38;;;;;;;7.78;3.67;;;28.20;96.70;;;;;;4925571;29;20410;-78
2023/07/13 05:11:07;;;;;;;10.38;3.67;;;28.40;96.70;;;;;;4926218;29;20047;-79
2023/07/13 05:13:37;;;;;;;9.48;3.63;;;28.30;96.70;;;;;;4925696;29;20052;-77
2023/07/13 05:16:07;;;;;;;8.30;3.13;;;28.20;96.70;;;;;;4924572;29;20139;-79
2023/07/13 05:18:36;;;;;;;6.53;3.30;;;28.20;96.70;;;;;;4926487;29;20119;-79
2023/07/13 05:21:10;;;;;;;9.52;3.42;;;28.10;96.70;;;;;;4917910;29;20255;-78
2023/07/13 05:23:41;;;;;;;10.52;3.85;;;28.10;96.70;;;;;;4926122;29;20075;-78
2023/07/13 05:26:10;;;;;;;5.85;2.70;;;28.20;96.70;;;;;;4910372;29;20067;-78
2023/07/13 05:28:40;;;;;;;8.65;2.90;;;28.40;96.70;;;;;;4908931;29;20106;-78
2023/07/13 05:31:09;;;;;;;6.20;3.25;;;28.50;96.70;;;;;;4927785;29;20467;-78
2023/07/13 05:33:38;;;;;;;6.53;3.15;;;28.50;96.70;;;;;;4930080;29;20047;-78
2023/07/13 05:36:07;;;;;;;9.25;3.10;;;28.40;96.70;;;;;;4929657;29;20047;-79
2023/07/13 05:38:35;;;;;;;8.38;3.17;;;28.50;96.70;;;;;;4901215;29;20505;-78
2023/07/13 05:41:03;;;;;;;7.13;3.53;;;28.60;96.70;;;;;;4927407;29;20087;-79
2023/07/13 05:43:33;;;;;;;4.93;3.15;;;28.70;96.70;;;;;;4912264;29;20043;-80
2023/07/13 05:46:03;;;;;;;8.98;2.92;;;28.70;96.70;;;;;;4920841;29;20051;-79
2023/07/13 05:48:31;;;;;;;9.80;3.70;;;28.70;96.70;;;;;;4912732;29;20471;-79
2023/07/13 05:51:00;;;;;;;9.70;3.42;;;28.80;96.70;;;;;;4928743;29;20049;-79
2023/07/13 05:53:28;;;;;;;6.25;3.40;;;28.70;96.70;;;;;;4920218;29;20075;-79
2023/07/13 05:55:56;;;;;;;8.25;3.13;;;28.70;96.70;;;;;;4912497;29;20056;-78
2023/07/13 05:58:28;;;;;;;8.73;3.33;;;28.70;96.70;;;;;;4896787;29;20067;-79
2023/07/13 06:01:04;;;;;;;9.68;2.90;;;28.80;96.70;;;;;;4930085;29;20043;-78
2023/07/13 06:03:32;;;;;;;7.90;2.97;;;28.80;96.70;;;;;;4928433;29;20040;-78
2023/07/13 06:06:01;;;;;;;6.35;3.42;;;28.90;96.70;;;;;;4928757;29;20645;-79
2023/07/13 06:08:29;;;;;;;10.35;3.45;;;28.90;96.70;;;;;;4919023;29;20060;-79
2023/07/13 06:11:03;;;;;;;9.73;3.72;;;28.90;96.70;;;;;;4912642;29;20071;-79
2023/07/13 06:13:31;;;;;;;8.05;2.90;;;28.90;96.70;;;;;;4929062;29;20040;-78
2023/07/13 06:16:00;;;;;;;12.70;3.35;;;28.80;96.70;;;;;;4911971;29;20522;-79
2023/07/13 06:18:29;;;;;;;6.95;3.38;;;28.80;96.70;;;;;;4911598;29;20075;-78
2023/07/13 06:20:58;;;;;;;9.13;3.35;;;28.70;96.70;;;;;;4911273;29;20059;-79
2023/07/13 06:23:26;;;;;;;8.02;3.47;;;28.80;96.70;;;;;;4911460;29;20435;-79
2023/07/13 06:25:54;;;;;;;6.90;3.47;;;28.80;96.70;;;;;;4930115;29;20044;-79
2023/07/13 06:28:23;;;;;;;11.80;3.33;;;28.80;96.70;;;;;;4911941;29;20044;-79
2023/07/13 06:30:51;;;;;;;6.13;3.38;;;28.80;96.70;;;;;;4900927;29;20198;-77
2023/07/13 06:33:19;;;;;;;5.40;3.08;;;28.90;96.70;;;;;;4903743;29;20051;-78
2023/07/13 06:35:49;;;;;;;7.68;3.00;;;28.90;96.70;;;;;;4918946;29;20044;-77
2023/07/13 06:38:17;;;;;;;6.97;3.33;;;29.00;96.70;;;;;;4910947;29;20055;-78
2023/07/13 06:40:45;;;;;;;12.38;3.97;;;29.00;96.70;;;;;;4928255;29;20084;-78
2023/07/13 06:43:13;;;;;;;10.40;3.38;;;29.10;96.70;;;;;;4926950;29;20476;-77
2023/07/13 06:45:45;;;;;;;10.73;4.78;;;29.00;96.70;;;;;;4927753;29;20490;-77
2023/07/13 06:48:14;;;;;;;8.95;3.45;;;29.00;96.70;;;;;;4911067;29;20051;-77
2023/07/13 06:50:42;;;;;;;9.60;4.15;;;29.10;96.70;;;;;;4911992;29;20130;-78
2023/07/13 06:53:12;;;;;;;10.98;4.45;;;29.20;96.70;;;;;;4914510;29;20048;-78
2023/07/13 06:55:43;;;;;;;8.18;4.50;;;29.40;96.70;;;;;;4919298;29;20058;-78
2023/07/13 06:58:11;;;;;;;11.90;4.07;;;29.40;96.70;;;;;;4910404;29;20066;-78
2023/07/13 07:00:40;;;;;;;10.95;4.63;;;29.50;96.70;;;;;;4895127;29;20593;-78
2023/07/13 07:03:08;;;;;;;10.98;3.85;;;29.60;96.70;;;;;;4910834;29;20051;-78
2023/07/13 07:05:36;;;;;;;8.40;4.07;;;29.60;96.70;;;;;;4927228;29;20110;-79
2023/07/13 07:08:04;;;;;;;6.65;3.60;;;29.50;96.70;;;;;;4927787;29;20052;-79
2023/07/13 07:10:35;;;;;;;13.80;3.67;;;29.50;96.70;;;;;;4927402;29;20060;-79
2023/07/13 07:13:04;;;;;;;5.88;3.53;;;29.50;96.70;;;;;;4910013;29;20052;-78
2023/07/13 07:15:32;;;;;;;7.93;3.60;;;29.60;96.70;;;;;;4911022;29;20039;-78
2023/07/13 07:18:00;;;;;;;9.68;3.55;;;29.50;96.70;;;;;;4910693;29;20103;-77
2023/07/13 07:20:30;;;;;;;6.72;3.50;;;29.50;96.70;;;;;;4927056;29;20055;-79
2023/07/13 07:22:58;;;;;;;9.93;3.72;;;29.50;96.70;;;;;;4894257;29;20051;-79
2023/07/13 07:25:26;;;;;;;10.77;3.80;;;29.60;96.70;;;;;;4927318;29;20400;-79
2023/07/13 07:27:56;;;;;;;8.13;3.35;;;29.50;96.70;;;;;;4927364;29;20079;-79
2023/07/13 07:30:27;;;;;;;6.43;3.60;;;29.50;96.70;;;;;;4927217;29;20052;-78
2023/07/13 07:32:58;;;;;;;9.48;4.35;;;29.60;96.70;;;;;;4914667;29;20146;-78
2023/07/13 07:35:29;;;;;;;10.98;3.33;;;29.60;96.70;;;;;;4924920;29;20055;-78
2023/07/13 07:38:03;;;;;;;12.13;4.07;;;29.60;96.70;;;;;;4917317;29;20142;-76
2023/07/13 07:40:31;;;;;;;8.00;3.78;;;29.70;96.70;;;;;;4927583;29;20497;-77
2023/07/13 07:43:04;;;;;;;10.05;3.92;;;29.70;96.70;;;;;;4912154;29;20102;-78
2023/07/13 07:45:32;;;;;;;10.18;4.65;;;29.80;96.70;;;;;;4925976;29;20264;-77
2023/07/13 07:48:00;;;;;;;11.18;3.88;;;29.90;96.70;;;;;;4906153;29;20227;-77
2023/07/13 07:50:29;;;;;;;12.27;4.35;;;30.00;96.70;;;;;;4902259;29;20048;-78
2023/07/13 07:52:57;;;;;;;9.75;3.78;;;30.10;96.70;;;;;;4922523;29;20087;-78
2023/07/13 07:55:26;;;;;;;9.35;4.32;;;30.20;96.70;;;;;;4927196;29;20073;-78
2023/07/13 07:57:57;;;;;;;8.93;3.22;;;30.30;96.70;;;;;;4922765;29;20071;-77
2023/07/13 08:00:31;;;;;;;9.65;3.90;;;30.30;96.70;;;;;;4924120;29;20528;-78
2023/07/13 08:03:19;;;;;;;11.07;3.78;;;30.40;96.70;;;;;;4909819;29;20048;-78
2023/07/13 08:05:53;;;;;;;10.93;4.05;;;30.40;96.70;;;;;;4912459;29;20043;-78
2023/07/13 08:08:25;;;;;;;9.57;4.38;;;30.40;96.70;;;;;;4923752;29;20074;-78
2023/07/13 08:10:53;;;;;;;12.93;4.90;;;30.30;96.70;;;;;;4926977;29;20160;-77
2023/07/13 08:13:26;;;;;;;10.30;4.47;;;30.30;96.70;;;;;;4923501;29;20059;-78
2023/07/13 08:15:55;;;;;;;12.45;4.95;;;30.20;96.70;;;;;;4924694;29;20050;-78
2023/07/13 08:18:23;;;;;;;8.23;3.65;;;30.30;96.70;;;;;;4924923;29;20509;-78
2023/07/13 08:20:51;;;;;;;9.77;3.92;;;30.30;96.70;;;;;;4923633;29;20051;-78
2023/07/13 08:23:20;;;;;;;6.13;3.55;;;30.30;96.70;;;;;;4924057;29;20055;-77
2023/07/13 08:25:51;;;;;;;7.95;3.83;;;30.40;96.70;;;;;;4926601;29;20540;-78
2023/07/13 08:28:20;;;;;;;9.50;4.40;;;30.50;96.70;;;;;;4910071;29;20518;-77
2023/07/13 08:30:48;;;;;;;9.13;4.20;;;30.60;96.70;;;;;;4926346;29;20127;-78
2023/07/13 08:33:19;;;;;;;10.10;4.30;;;30.70;96.70;;;;;;4923597;29;20135;-78
2023/07/13 08:35:47;;;;;;;9.80;3.90;;;30.60;96.70;;;;;;4926637;29;20098;-78
2023/07/13 08:38:16;;;;;;;8.95;3.80;;;30.60;96.70;;;;;;4926509;29;20471;-78
2023/07/13 08:40:48;;;;;;;9.90;4.13;;;30.70;96.70;;;;;;4920781;29;20115;-77
2023/07/13 08:43:20;;;;;;;10.18;3.88;;;30.90;96.70;;;;;;4924983;29;20147;-78
2023/07/13 08:45:54;;;;;;;6.63;3.88;;;30.90;96.70;;;;;;4925905;29;20495;-77
2023/07/13 08:48:27;;;;;;;7.93;4.57;;;30.90;96.70;;;;;;4918769;29;20071;-78
2023/07/13 08:50:58;;;;;;;6.95;4.05;;;30.90;96.70;;;;;;4921668;29;20641;-78
2023/07/13 08:53:35;;;;;;;8.23;4.30;;;31.00;96.70;;;;;;4926740;29;20052;-78
2023/07/13 08:56:11;;;;;;;7.72;3.92;;;31.00;96.70;;;;;;4924159;29;20147;-78
2023/07/13 08:58:40;;;;;;;9.60;4.00;;;31.00;96.70;;;;;;4920108;29;20107;-78
2023/07/13 09:01:17;;;;;;;6.80;3.75;;;31.20;96.70;;;;;;4908945;29;20140;-78
2023/07/13 09:03:57;;;;;;;11.38;4.15;;;31.30;96.70;;;;;;4924402;29;20059;-79
2023/07/13 09:06:34;;;;;;;6.68;3.80;;;31.50;96.70;;;;;;4896439;29;20384;-79
2023/07/13 09:09:10;;;;;;;11.73;4.50;;;31.50;96.70;;;;;;4922200;29;20051;-79
2023/07/13 09:11:49;;;;;;;9.77;4.03;;;31.50;96.70;;;;;;4928503;29;20060;-78
2023/07/13 09:14:39;;;;;;;11.63;4.57;;;31.40;96.70;;;;;;4929730;29;20047;-78
2023/07/13 09:17:14;;;;;;;10.27;4.05;;;31.30;96.70;;;;;;4913227;29;20060;-79
2023/07/13 09:19:47;;;;;;;12.68;4.88;;;31.20;96.70;;;;;;4908802;29;20052;-79
2023/07/13 09:22:21;;;;;;;13.55;4.45;;;31.30;96.70;;;;;;4910949;29;20139;-82
2023/07/13 09:24:59;;;;;;;11.18;4.22;;;31.60;96.70;;;;;;4912757;29;20143;-80
2023/07/13 09:27:33;;;;;;;13.05;4.88;;;31.70;96.70;;;;;;4901510;29;20140;-79
2023/07/13 09:30:18;;;;;;;8.10;4.10;;;31.60;96.70;;;;;;4928796;29;20055;-78
2023/07/13 09:32:50;;;;;;;7.63;4.50;;;31.50;96.70;;;;;;4928799;29;20167;-78
2023/07/13 09:35:27;;;;;;;12.73;4.43;;;31.30;96.70;;;;;;4928997;29;20054;-78
2023/07/13 09:38:02;;;;;;;9.10;3.92;;;31.30;96.70;;;;;;4924915;29;20553;-79
2023/07/13 09:40:41;;;;;;;8.10;4.13;;;31.30;96.70;;;;;;4928216;29;20091;-79
2023/07/13 09:43:13;;;;;;;10.20;5.00;;;31.30;96.70;;;;;;4926092;29;20048;-78
2023/07/13 09:45:44;;;;;;;12.05;4.88;;;31.30;96.70;;;;;;4913318;29;20056;-78
2023/07/13 09:48:15;;;;;;;10.65;4.65;;;31.50;96.70;;;;;;4929547;29;20052;-78
2023/07/13 09:50:45;;;;;;;11.98;5.18;;;31.50;96.70;;;;;;4929704;29;20052;-78
2023/07/13 09:53:15;;;;;;;15.27;4.95;;;31.60;96.70;;;;;;4912447;29;20593;-78
2023/07/13 09:55:45;;;;;;;12.80;4.68;;;31.50;96.70;;;;;;4912711;29;20051;-78
2023/07/13 09:58:26;;;;;;;11.35;4.68;;;31.50;96.70;;;;;;4916214;29;20106;-76
2023/07/13 10:00:57;;;;;;;11.05;4.82;;;31.50;96.70;;;;;;4916534;29;20130;-78
2023/07/13 10:03:27;;;;;;;14.02;4.95;;;31.50;96.70;;;;;;4901281;29;20498;-78
2023/07/13 10:06:06;;;;;;;11.02;5.28;;;31.50;96.70;;;;;;4928472;29;20106;-78
2023/07/13 10:08:36;;;;;;;16.10;5.25;;;31.40;96.70;;;;;;4920181;29;20431;-79
2023/07/13 10:11:10;;;;;;;11.57;4.68;;;31.30;96.70;;;;;;4918856;29;20115;-79
2023/07/13 10:13:44;;;;;;;14.45;5.50;;;31.40;96.70;;;;;;4928929;29;20047;-78
2023/07/13 10:16:13;;;;;;;11.73;5.15;;;31.50;96.70;;;;;;4896117;29;20056;-78
2023/07/13 10:18:46;;;;;;;14.60;5.20;;;31.40;96.70;;;;;;4915324;29;20040;-78
2023/07/13 10:21:20;;;;;;;12.48;5.18;;;31.30;96.70;;;;;;4926850;29;20494;-78
2023/07/13 10:24:10;;;;;;;18.08;5.10;;;31.20;96.70;;;;;;4918983;29;20090;-78
2023/07/13 10:26:45;;;;;;;12.10;5.15;;;31.10;96.70;;;;;;4912193;29;20246;-78
2023/07/13 10:29:15;;;;;;;18.17;5.50;;;31.00;96.70;;;;;;4912457;29;20866;-78
2023/07/13 10:31:45;;;;;;;12.32;4.78;;;30.80;96.70;;;;;;4917876;29;20526;-78
2023/07/13 10:34:14;;;;;;;10.60;5.10;;;30.50;96.70;;;;;;4913817;29;20135;-77
2023/07/13 10:36:45;;;;;;;14.07;5.22;;;30.00;96.70;;;;;;4910960;29;20051;-78
2023/07/13 10:39:17;;;;;;;13.50;5.25;;;29.80;96.70;;;;;;4927452;29;20529;-79
2023/07/13 10:41:50;;;;;;;11.98;5.57;;;29.50;96.70;;;;;;4911069;29;20055;-79
2023/07/13 10:44:26;;;;;;;9.95;5.85;;;29.40;96.70;;;;;;4919517;29;20854;-79
2023/07/13 10:46:57;;;;;;;8.35;4.47;;;29.40;96.70;;;;;;4927897;29;20551;-79
2023/07/13 10:49:27;;;;;;;10.18;4.90;;;29.40;96.70;;;;;;4917879;29;20496;-79
2023/07/13 10:51:57;;;;;;;11.85;5.28;;;29.50;96.70;;;;;;4927768;29;20495;-79
2023/07/13 10:54:30;;;;;;;11.82;5.00;;;29.50;96.70;;;;;;4910106;29;20059;-77
2023/07/13 10:57:18;;;;;;;9.48;4.10;;;29.50;96.70;;;;;;4919170;29;20143;-77
2023/07/13 10:59:49;;;;;;;9.00;4.50;;;29.50;96.70;;;;;;4909806;29;20148;-78
2023/07/13 11:02:26;;;;;;;11.52;4.82;;;29.40;96.70;;;;;;4929595;29;20043;-77
2023/07/13 11:04:57;;;;;;;7.22;4.43;;;29.40;96.70;;;;;;4928314;29;20585;-81
2023/07/13 11:07:29;;;;;;;10.57;4.70;;;29.50;96.70;;;;;;4913733;29;20051;-81
2023/07/13 11:09:58;;;;;;;12.05;4.35;;;29.50;96.70;;;;;;4928415;29;20418;-80
2023/07/13 11:12:49;;;;;;;7.25;3.63;;;29.80;96.70;;;;;;4928586;29;20596;-81
2023/07/13 11:15:30;;;;;;;9.93;4.32;;;30.00;96.70;;;;;;4911296;29;20099;-79
2023/07/13 11:18:03;;;;;;;11.75;4.78;;;30.20;96.70;;;;;;4911450;29;20070;-79
2023/07/13 11:20:34;;;;;;;7.97;4.68;;;30.30;96.70;;;;;;4916517;29;20056;-82
2023/07/13 11:23:31;;;;;;;10.25;4.68;;;30.30;96.70;;;;;;4922396;29;20425;-81
2023/07/13 11:26:01;;;;;;;10.20;4.75;;;30.50;96.70;;;;;;4924801;29;20052;-80
2023/07/13 11:28:32;;;;;;;7.40;4.53;;;30.70;96.70;;;;;;4931032;29;20039;-80
2023/07/13 11:31:15;;;;;;;7.25;4.20;;;30.90;96.70;;;;;;4930237;29;20069;-80
2023/07/13 11:34:00;;;;;;;8.35;3.92;;;30.90;96.70;;;;;;4902025;29;20138;-81
2023/07/13 11:36:35;;;;;;;8.30;4.38;;;31.00;96.70;;;;;;4906591;29;20087;-81
2023/07/13 11:39:16;;;;;;;9.48;4.95;;;31.10;96.70;;;;;;4912616;29;20052;-81
2023/07/13 11:41:49;;;;;;;8.90;4.65;;;31.50;96.70;;;;;;4905130;29;20052;-81
2023/07/13 11:44:20;;;;;;;11.23;4.57;;;31.70;96.70;;;;;;4914495;29;20058;-79
2023/07/13 11:46:51;;;;;;;10.25;4.75;;;31.80;96.70;;;;;;4927244;29;20146;-79
2023/07/13 11:49:23;;;;;;;9.10;4.68;;;31.70;96.70;;;;;;4927607;29;20040;-80
2023/07/13 11:51:54;;;;;;;7.78;4.45;;;31.60;96.70;;;;;;4926420;29;20135;-79
2023/07/13 11:54:27;;;;;;;10.65;4.97;;;31.60;96.70;;;;;;4912213;29;20058;-79
2023/07/13 11:57:00;;;;;;;11.07;5.40;;;32.00;96.70;;;;;;4927439;29;20047;-79
2023/07/13 11:59:31;;;;;;;7.57;4.47;;;32.30;96.70;;;;;;4912396;29;20055;-78
2023/07/13 12:01:59;;;;;;;12.15;5.30;;;32.50;96.70;;;;;;4911504;29;20060;-80
2023/07/13 12:04:31;;;;;;;13.70;5.30;;;32.70;96.70;;;;;;4927000;29;20131;-79
2023/07/13 12:07:06;;;;;;;13.77;5.43;;;32.80;96.70;;;;;;4926788;29;20039;-78
2023/07/13 12:09:36;;;;;;;9.48;5.28;;;32.70;96.70;;;;;;4924527;29;20044;-79
2023/07/13 12:12:11;;;;;;;12.77;5.30;;;32.40;96.70;;;;;;4909569;29;20150;-78
2023/07/13 12:14:40;;;;;;;15.03;5.10;;;32.60;96.70;;;;;;4902864;29;20129;-79
2023/07/13 12:17:19;;;;;;;10.32;5.30;;;32.60;96.70;;;;;;4910612;29;20130;-79
2023/07/13 12:19:48;;;;;;;12.50;5.20;;;32.70;96.70;;;;;;4924900;29;20453;-80
2023/07/13 12:22:18;;;;;;;17.85;6.40;;;32.80;96.70;;;;;;4926139;29;20095;-80
2023/07/13 12:24:48;;;;;;;11.98;5.13;;;33.00;96.70;;;;;;4910468;29;20801;-79
2023/07/13 12:27:22;;;;;;;15.95;5.80;;;33.10;96.70;;;;;;4926938;29;20055;-79
2023/07/13 12:29:53;;;;;;;16.85;5.80;;;33.10;96.70;;;;;;4915638;29;20049;-78
2023/07/13 12:32:22;;;;;;;15.13;5.38;;;33.30;96.70;;;;;;4895447;29;20453;-79
2023/07/13 12:34:55;;;;;;;13.07;5.75;;;33.50;96.70;;;;;;4909521;29;20043;-78
2023/07/13 12:37:25;;;;;;;17.58;6.03;;;33.70;96.70;;;;;;4926630;29;20151;-80
2023/07/13 12:39:54;;;;;;;14.73;4.95;;;33.70;96.70;;;;;;4920131;29;20044;-80
2023/07/13 12:42:27;;;;;;;16.95;5.80;;;33.70;96.70;;;;;;4930816;29;20463;-79
2023/07/13 12:44:59;;;;;;;19.15;6.03;;;33.70;96.70;;;;;;4914959;29;20051;-79
2023/07/13 12:47:28;;;;;;;15.50;5.70;;;33.90;96.70;;;;;;4922332;29;20047;-80
2023/07/13 12:49:58;;;;;;;19.70;5.95;;;33.90;96.70;;;;;;4913568;29;20102;-78
2023/07/13 12:52:32;;;;;;;17.77;5.72;;;33.70;96.70;;;;;;4917753;29;20051;-78
2023/07/13 12:55:14;;;;;;;18.92;5.97;;;33.50;96.70;;;;;;4908346;29;20052;-77
2023/07/13 12:57:53;;;;;;;21.73;5.95;;;33.40;96.70;;;;;;4931102;29;20063;-79
2023/07/13 13:00:28;;;;;;;24.60;6.00;;;33.60;96.70;;;;;;4918989;29;20146;-79